Terminal Aerodrome Forecast
Issued by NWS

Home | Current Version | Previous Version | Text Only | Print | Product List | Glossary On
Versions: 1 2 3 4 5 6 7 8 9 10 11 12 13 14 15 16 17 18 19
000
FTUS42 KRAH 311735
TAFINT
TAF
KINT 311735Z 3118/0118 02003KT P6SM BKN035 OVC090
     FM010000 VRB04KT P6SM VCSH OVC025
     FM010400 03007KT 3SM -RA OVC012
     FM010700 36013G18KT 2SM -RA BR BKN005 OVC012
     FM011200 36016G22KT 2SM -RA BR OVC004=

USA.gov is the U.S. government's official web portal to all federal, state and local government web resources and services.